createdAt,value
2023-01-04T00:02:56.614Z,61.13
2023-01-04T00:06:05.598Z,54.00
2023-01-04T00:09:11.383Z,61.33
2023-01-04T00:12:16.740Z,56.45
2023-01-04T00:15:22.550Z,70.10
2023-01-04T00:18:28.031Z,57.25
2023-01-04T00:21:33.504Z,60.10
2023-01-04T00:24:39.118Z,65.28
2023-01-04T00:27:44.785Z,53.03
2023-01-04T00:30:49.960Z,60.38
2023-01-04T00:33:56.756Z,58.42
2023-01-04T00:37:02.392Z,58.08
2023-01-04T00:40:08.343Z,58.53
2023-01-04T00:43:13.893Z,55.28
2023-01-04T00:46:19.052Z,66.10
2023-01-04T00:49:24.828Z,67.47
2023-01-04T00:52:30.436Z,67.63
2023-01-04T00:55:36.257Z,58.45
2023-01-04T00:58:41.295Z,56.72
2023-01-04T01:01:47.721Z,56.85
2023-01-04T01:04:53.244Z,58.50
2023-01-04T01:07:58.996Z,61.47
2023-01-04T01:11:07.612Z,57.67
2023-01-04T01:14:18.868Z,59.72
2023-01-04T01:17:24.803Z,61.75
2023-01-04T01:20:30.304Z,64.93
2023-01-04T01:23:36.093Z,67.80
2023-01-04T01:26:41.552Z,55.60
2023-01-04T01:29:46.579Z,67.10
2023-01-04T01:32:51.887Z,65.57
2023-01-04T01:36:02.419Z,63.28
2023-01-04T01:39:08.160Z,69.13
2023-01-04T01:42:20.713Z,68.22
2023-01-04T01:45:34.862Z,66.47
2023-01-04T01:48:41.416Z,58.88
2023-01-04T01:51:46.778Z,65.05
2023-01-04T01:55:00.162Z,73.63
2023-01-04T01:58:09.502Z,61.45
2023-01-04T02:01:15.272Z,61.83
2023-01-04T02:04:20.908Z,69.55
2023-01-04T02:07:28.296Z,66.20
2023-01-04T02:10:34.302Z,65.30
2023-01-04T02:14:01.436Z,66.32
2023-01-04T02:17:34.629Z,62.70
2023-01-04T02:21:05.623Z,66.93
2023-01-04T02:24:44.583Z,58.20
2023-01-04T02:28:02.583Z,62.92
2023-01-04T02:32:01.739Z,67.50
2023-01-04T02:35:21.887Z,66.82
2023-01-04T02:38:54.035Z,67.68
2023-01-04T02:42:06.923Z,69.18
2023-01-04T02:45:15.554Z,76.18
2023-01-04T02:48:39.599Z,71.35
2023-01-04T02:51:45.301Z,70.82
2023-01-04T02:54:55.659Z,71.03
2023-01-04T02:58:29.604Z,71.20
2023-01-04T03:02:06.144Z,77.97
2023-01-04T03:05:35.355Z,75.68
2023-01-04T03:09:07.774Z,71.70
2023-01-04T03:12:34.635Z,73.75
2023-01-04T03:15:41.453Z,80.13
2023-01-04T03:18:53.338Z,77.13
2023-01-04T03:21:59.058Z,86.75
2023-01-04T03:25:25.451Z,72.43
2023-01-04T03:28:54.821Z,82.40
2023-01-04T03:32:34.047Z,79.38
2023-01-04T03:35:48.328Z,79.70
2023-01-04T03:39:46.446Z,79.10
2023-01-04T03:43:28.044Z,81.20
2023-01-04T03:47:02.910Z,73.75
2023-01-04T03:50:26.806Z,68.50
2023-01-04T03:53:40.686Z,71.82
2023-01-04T03:56:48.461Z,67.18
2023-01-04T04:00:02.705Z,68.50
2023-01-04T04:03:10.127Z,76.45
2023-01-04T04:06:33.967Z,81.35
2023-01-04T04:09:39.320Z,71.43
2023-01-04T04:12:44.899Z,70.13
2023-01-04T04:15:53.686Z,77.07
2023-01-04T04:19:03.109Z,90.18
2023-01-04T04:22:12.131Z,77.43
2023-01-04T04:25:17.873Z,85.30
2023-01-04T04:28:23.786Z,92.88
2023-01-04T04:31:29.274Z,83.57
2023-01-04T04:34:34.871Z,75.25
2023-01-04T04:37:40.529Z,84.72
2023-01-04T04:41:05.197Z,80.40
2023-01-04T04:44:17.351Z,81.43
2023-01-04T04:50:27.705Z,82.50
2023-01-04T04:53:33.619Z,95.60
2023-01-04T04:56:39.622Z,89.55
2023-01-04T04:59:45.663Z,91.43
2023-01-04T05:02:51.242Z,88.60
2023-01-04T05:05:56.614Z,85.18
2023-01-04T05:09:02.174Z,83.63
2023-01-04T05:12:26.529Z,83.50
2023-01-04T05:15:39.213Z,95.43
2023-01-04T05:18:44.424Z,86.32
2023-01-04T05:21:49.619Z,84.13
2023-01-04T05:24:54.765Z,88.93
2023-01-04T05:28:00.659Z,79.95
2023-01-04T05:31:06.260Z,83.32
2023-01-04T05:34:13.882Z,96.80
2023-01-04T05:37:22.742Z,89.38
2023-01-04T05:40:28.217Z,84.45
2023-01-04T05:43:34.006Z,111.35
2023-01-04T05:46:39.623Z,90.72
2023-01-04T05:49:45.039Z,84.88
2023-01-04T05:52:51.039Z,85.47
2023-01-04T05:55:56.396Z,86.82
2023-01-04T05:59:01.754Z,86.50
2023-01-04T06:02:08.703Z,92.65
2023-01-04T06:05:14.190Z,85.70
2023-01-04T06:08:19.804Z,78.05
2023-01-04T06:11:27.748Z,98.00
2023-01-04T06:14:33.588Z,103.05
2023-01-04T06:17:39.833Z,99.60
2023-01-04T06:20:45.096Z,111.93
2023-01-04T06:23:50.539Z,95.18
2023-01-04T06:26:55.848Z,100.82
2023-01-04T06:30:01.160Z,79.40
2023-01-04T06:33:06.552Z,94.07
2023-01-04T06:36:19.932Z,79.47
2023-01-04T06:39:26.044Z,77.60
2023-01-04T06:42:46.583Z,76.22
2023-01-04T06:45:52.307Z,76.78
2023-01-04T06:48:58.479Z,83.05
2023-01-04T06:52:04.471Z,75.68
2023-01-04T06:55:10.422Z,88.82
2023-01-04T06:58:16.090Z,75.40
2023-01-04T07:01:21.547Z,79.00
2023-01-04T07:04:26.938Z,79.90
2023-01-04T07:07:34.259Z,73.55
2023-01-04T07:10:39.537Z,90.15
2023-01-04T07:13:45.107Z,75.68
2023-01-04T07:16:50.292Z,85.15
2023-01-04T07:19:55.560Z,87.15
2023-01-04T07:23:01.289Z,87.95
2023-01-04T07:26:06.836Z,85.63
2023-01-04T07:29:15.039Z,87.20
2023-01-04T07:32:20.347Z,81.05
2023-01-04T07:35:26.164Z,77.55
2023-01-04T07:38:31.678Z,82.72
2023-01-04T07:41:37.818Z,90.57
2023-01-04T07:44:43.243Z,87.05
2023-01-04T07:47:48.736Z,88.18
2023-01-04T07:50:53.957Z,67.75
2023-01-04T07:54:00.720Z,74.88
2023-01-04T07:57:06.545Z,68.57
2023-01-04T08:00:12.904Z,76.45
2023-01-04T08:03:18.997Z,69.13
2023-01-04T08:06:25.916Z,67.38
2023-01-04T08:09:31.268Z,69.93
2023-01-04T08:12:36.827Z,81.88
2023-01-04T08:15:42.382Z,80.22
2023-01-04T08:18:48.267Z,67.25
2023-01-04T08:21:54.017Z,67.45
2023-01-04T08:24:59.814Z,70.28
2023-01-04T08:28:05.943Z,72.88
2023-01-04T08:31:17.289Z,65.82
2023-01-04T08:34:22.605Z,64.25
2023-01-04T08:37:29.113Z,57.60
2023-01-04T08:40:58.201Z,53.85
2023-01-04T08:44:00.743Z,55.10
2023-01-04T08:47:06.383Z,45.85
2023-01-04T08:50:11.857Z,45.55
2023-01-04T08:53:17.536Z,44.47
2023-01-04T08:56:23.147Z,68.53
2023-01-04T08:59:28.704Z,65.13
2023-01-04T09:02:34.379Z,64.13
2023-01-04T09:05:40.268Z,59.47
2023-01-04T09:08:45.978Z,54.28
2023-01-04T09:11:51.685Z,61.33
2023-01-04T09:14:57.325Z,56.75
2023-01-04T09:18:30.937Z,53.65
2023-01-04T09:21:29.593Z,53.80
2023-01-04T09:24:35.948Z,46.53
2023-01-04T09:27:41.604Z,50.97
2023-01-04T09:30:47.177Z,48.03
2023-01-04T09:37:19.524Z,53.67
2023-01-04T09:40:32.164Z,51.42
2023-01-04T09:44:01.496Z,61.47
2023-01-04T09:47:22.688Z,53.15
2023-01-04T09:50:30.166Z,50.65
2023-01-04T09:53:45.520Z,50.03
2023-01-04T09:57:01.296Z,48.88
2023-01-04T10:00:07.180Z,44.30
2023-01-04T10:03:35.189Z,51.60
2023-01-04T10:06:41.177Z,42.33
2023-01-04T10:09:46.708Z,41.30
2023-01-04T10:13:21.978Z,47.83
2023-01-04T10:24:43.848Z,43.38
2023-01-04T10:28:27.780Z,49.08
2023-01-04T10:31:52.652Z,43.05
2023-01-04T10:34:58.982Z,36.25
2023-01-04T10:38:15.732Z,40.60
2023-01-04T10:41:24.968Z,35.47
2023-01-04T10:45:06.833Z,38.03
2023-01-04T10:48:39.052Z,41.28
2023-01-04T10:51:55.440Z,34.80
2023-01-04T10:55:16.474Z,40.58
2023-01-04T10:58:32.255Z,33.27
2023-01-04T11:01:42.937Z,37.05
2023-01-04T11:05:00.155Z,38.00
2023-01-04T11:08:17.864Z,38.05
2023-01-04T11:11:41.959Z,36.65
2023-01-04T11:14:47.481Z,34.17
2023-01-04T11:17:53.453Z,33.85
2023-01-04T11:20:59.897Z,34.75
2023-01-04T11:24:30.947Z,30.35
2023-01-04T11:27:43.010Z,30.88
2023-01-04T11:31:10.943Z,28.58
2023-01-04T11:34:16.644Z,29.10
2023-01-04T11:37:30.162Z,23.15
2023-01-04T11:40:36.148Z,24.48
2023-01-04T11:43:58.971Z,24.77
2023-01-04T11:47:33.258Z,33.25
2023-01-04T11:50:46.484Z,27.05
2023-01-04T11:54:15.100Z,31.60
2023-01-04T11:57:21.920Z,25.55
2023-01-04T12:00:27.430Z,25.70
2023-01-04T12:03:39.178Z,24.55
2023-01-04T12:06:54.196Z,23.63
2023-01-04T12:10:01.935Z,24.95
2023-01-04T12:13:10.787Z,25.55
2023-01-04T12:16:50.223Z,18.88
2023-01-04T12:19:57.734Z,20.17
2023-01-04T12:23:03.706Z,15.90
2023-01-04T12:26:12.401Z,13.43
2023-01-04T12:29:24.083Z,20.33
2023-01-04T12:32:29.641Z,20.45
2023-01-04T12:36:03.196Z,21.35
2023-01-04T12:39:14.978Z,20.58
2023-01-04T12:42:27.790Z,16.83
2023-01-04T12:45:32.997Z,17.23
2023-01-04T12:48:56.752Z,18.27
2023-01-04T12:55:43.837Z,20.17
2023-01-04T12:59:26.825Z,20.38
2023-01-04T13:02:35.738Z,20.00
2023-01-04T13:05:56.668Z,17.58
2023-01-04T13:09:03.422Z,18.30
2023-01-04T13:12:21.188Z,17.50
2023-01-04T13:15:32.396Z,17.05
2023-01-04T13:18:40.513Z,19.25
2023-01-04T13:21:47.269Z,19.65
2023-01-04T13:24:56.835Z,22.80
2023-01-04T13:28:05.471Z,24.55
2023-01-04T13:31:11.115Z,27.15
2023-01-04T13:34:52.837Z,31.60
2023-01-04T13:38:01.162Z,29.27
2023-01-04T13:41:23.436Z,28.65
2023-01-04T13:45:00.129Z,33.33
2023-01-04T13:48:05.500Z,32.35
2023-01-04T13:51:37.074Z,31.35
2023-01-04T13:54:43.964Z,31.75
2023-01-04T13:58:17.781Z,30.48
2023-01-04T14:01:41.538Z,27.35
2023-01-04T14:04:51.141Z,30.50
2023-01-04T14:07:57.409Z,40.17
2023-01-04T14:11:35.949Z,32.30
2023-01-04T14:15:01.083Z,29.45
2023-01-04T14:18:29.590Z,29.55
2023-01-04T14:21:37.192Z,41.72
2023-01-04T14:25:08.561Z,34.90
2023-01-04T14:28:49.060Z,39.13
2023-01-04T14:31:55.524Z,35.83
2023-01-04T14:35:11.822Z,33.75
2023-01-04T14:38:19.385Z,35.55
2023-01-04T14:41:28.909Z,33.88
2023-01-04T14:44:36.508Z,30.83
2023-01-04T14:47:42.482Z,35.60
2023-01-04T14:50:48.235Z,32.95
2023-01-04T14:53:55.386Z,34.20
2023-01-04T14:57:00.922Z,35.53
2023-01-04T15:00:06.868Z,35.08
2023-01-04T15:03:12.703Z,28.27
2023-01-04T15:06:19.067Z,26.88
2023-01-04T15:09:25.367Z,28.30
2023-01-04T15:12:31.380Z,29.00
2023-01-04T15:15:37.155Z,27.45
2023-01-04T15:18:43.735Z,30.65
2023-01-04T15:21:48.994Z,33.63
2023-01-04T15:24:54.152Z,30.80
2023-01-04T15:27:59.389Z,30.73
2023-01-04T15:31:13.276Z,29.08
2023-01-04T15:34:19.091Z,29.45
2023-01-04T15:37:24.570Z,36.00
2023-01-04T15:40:29.769Z,37.72
2023-01-04T15:43:36.702Z,28.55
2023-01-04T15:46:42.383Z,33.45
2023-01-04T15:49:48.207Z,33.63
2023-01-04T15:52:53.652Z,33.47
2023-01-04T15:56:08.290Z,31.33
2023-01-04T15:59:14.102Z,29.73
2023-01-04T16:02:19.892Z,28.92
2023-01-04T16:05:25.616Z,28.23
2023-01-04T16:08:31.794Z,27.65
2023-01-04T16:11:37.333Z,25.75
2023-01-04T16:14:42.603Z,31.20
2023-01-04T16:17:48.893Z,26.13
2023-01-04T16:20:54.469Z,28.85
2023-01-04T16:24:07.180Z,30.63
2023-01-04T16:27:22.486Z,35.28
2023-01-04T16:30:33.190Z,29.50
2023-01-04T16:33:38.476Z,33.08
2023-01-04T16:36:43.516Z,39.65
2023-01-04T16:40:06.170Z,37.17
2023-01-04T16:43:12.396Z,36.67
2023-01-04T16:46:26.171Z,35.05
2023-01-04T16:49:31.463Z,36.08
2023-01-04T16:52:36.447Z,37.85
2023-01-04T16:55:41.710Z,40.67
2023-01-04T16:58:48.460Z,37.38
2023-01-04T17:01:58.190Z,42.13
2023-01-04T17:05:04.671Z,42.97
2023-01-04T17:08:10.340Z,45.00
2023-01-04T17:14:49.022Z,53.08
2023-01-04T17:18:02.185Z,64.82
2023-01-04T17:21:33.354Z,61.85
2023-01-04T17:24:37.671Z,54.75
2023-01-04T17:27:43.467Z,56.13
2023-01-04T17:30:49.338Z,50.35
2023-01-04T17:33:55.606Z,50.50
2023-01-04T17:37:01.173Z,45.33
2023-01-04T17:40:07.115Z,46.30
2023-01-04T17:43:12.571Z,50.30
2023-01-04T17:46:23.400Z,46.90
2023-01-04T17:49:32.061Z,47.05
2023-01-04T17:52:38.358Z,49.78
2023-01-04T17:55:43.971Z,48.45
2023-01-04T17:58:49.049Z,45.72
2023-01-04T18:01:54.662Z,46.53
2023-01-04T18:05:01.130Z,46.65
2023-01-04T18:08:09.071Z,47.17
2023-01-04T18:11:14.659Z,48.38
2023-01-04T18:14:20.110Z,46.50
2023-01-04T18:17:25.967Z,53.10
2023-01-04T18:20:31.475Z,49.08
2023-01-04T18:23:38.575Z,48.15
2023-01-04T18:30:13.015Z,52.75
2023-01-04T18:33:18.586Z,62.78
2023-01-04T18:36:29.867Z,57.17
2023-01-04T18:39:37.242Z,59.42
2023-01-04T18:42:47.540Z,65.00
2023-01-04T18:45:52.965Z,61.60
2023-01-04T18:49:00.313Z,69.97
2023-01-04T18:52:06.355Z,64.05
2023-01-04T18:55:11.957Z,69.85
2023-01-04T18:58:17.623Z,70.25
2023-01-04T19:01:23.574Z,63.85
2023-01-04T19:04:34.374Z,63.88
2023-01-04T19:07:40.059Z,70.25
2023-01-04T19:10:45.320Z,63.28
2023-01-04T19:13:52.798Z,64.53
2023-01-04T19:16:58.615Z,64.32
2023-01-04T19:20:04.285Z,62.70
2023-01-04T19:23:09.810Z,57.22
2023-01-04T19:26:15.525Z,63.45
2023-01-04T19:29:22.689Z,65.57
2023-01-04T19:32:33.228Z,56.05
2023-01-04T19:35:46.968Z,60.60
2023-01-04T19:38:55.630Z,59.08
2023-01-04T19:42:01.196Z,56.03
2023-01-04T19:45:07.157Z,58.42
2023-01-04T19:48:12.968Z,59.20
2023-01-04T19:51:18.352Z,53.83
2023-01-04T19:54:25.753Z,50.80
2023-01-04T19:57:32.969Z,53.95
2023-01-04T20:00:40.231Z,54.92
2023-01-04T20:03:47.211Z,46.15
2023-01-04T20:06:54.592Z,52.67
2023-01-04T20:10:00.280Z,47.80
2023-01-04T20:13:05.780Z,46.47
2023-01-04T20:16:12.535Z,45.20
2023-01-04T20:19:19.666Z,49.92
2023-01-04T20:22:26.583Z,51.55
2023-01-04T20:25:32.237Z,45.38
2023-01-04T20:28:39.971Z,48.50
2023-01-04T20:31:46.944Z,43.58
2023-01-04T20:34:53.105Z,44.40
2023-01-04T20:38:00.000Z,49.60
2023-01-04T20:41:06.565Z,48.00
2023-01-04T20:44:12.629Z,45.03
2023-01-04T20:47:19.817Z,44.97
2023-01-04T20:50:26.747Z,43.40
2023-01-04T20:53:34.507Z,49.17
2023-01-04T20:56:45.400Z,49.50
2023-01-04T20:59:52.403Z,46.30
2023-01-04T21:02:59.263Z,44.63
2023-01-04T21:06:08.949Z,44.42
2023-01-04T21:09:14.779Z,43.45
2023-01-04T21:12:20.695Z,45.85
2023-01-04T21:15:26.243Z,42.20
2023-01-04T21:18:33.647Z,40.65
2023-01-04T21:21:39.538Z,43.83
2023-01-04T21:24:45.535Z,40.97
2023-01-04T21:27:51.146Z,41.78
2023-01-04T21:30:57.452Z,39.97
2023-01-04T21:34:06.661Z,38.50
2023-01-04T21:40:20.719Z,41.53
2023-01-04T21:43:26.129Z,43.45
2023-01-04T21:46:31.604Z,42.92
2023-01-04T21:49:37.128Z,42.25
2023-01-04T21:52:42.673Z,45.60
2023-01-04T21:55:48.307Z,39.60
2023-01-04T21:58:53.382Z,45.60
2023-01-04T22:01:58.870Z,45.97
2023-01-04T22:05:05.087Z,40.60
2023-01-04T22:08:10.833Z,40.95
2023-01-04T22:11:16.891Z,48.55
2023-01-04T22:14:22.514Z,41.53
2023-01-04T22:17:28.023Z,41.63
2023-01-04T22:20:33.863Z,48.55
2023-01-04T22:23:39.586Z,44.10
2023-01-04T22:26:47.419Z,42.72
2023-01-04T22:29:52.685Z,39.47
2023-01-04T22:32:58.132Z,42.08
2023-01-04T22:36:22.851Z,46.25
2023-01-04T22:39:29.091Z,42.92
2023-01-04T22:42:34.880Z,41.83
2023-01-04T22:45:40.129Z,43.33
2023-01-04T22:48:46.077Z,42.10
2023-01-04T22:51:54.496Z,43.00
2023-01-04T22:55:00.205Z,47.83
2023-01-04T22:58:05.423Z,49.63
2023-01-04T23:01:11.161Z,38.95
2023-01-04T23:04:17.466Z,44.28
2023-01-04T23:07:22.777Z,50.40
2023-01-04T23:10:27.982Z,46.45
2023-01-04T23:13:33.931Z,44.40
2023-01-04T23:16:39.721Z,43.78
2023-01-04T23:19:45.055Z,44.67
2023-01-04T23:22:50.547Z,45.97
2023-01-04T23:25:56.271Z,48.80
2023-01-04T23:29:02.498Z,47.35
2023-01-04T23:32:08.123Z,44.67
2023-01-04T23:35:14.043Z,52.70
2023-01-04T23:38:19.491Z,43.85
2023-01-04T23:41:44.496Z,47.00
2023-01-04T23:44:50.510Z,49.25
2023-01-04T23:47:56.160Z,48.45
2023-01-04T23:51:01.879Z,51.95
2023-01-04T23:54:08.785Z,44.65
2023-01-04T23:57:14.121Z,43.67
